ROMMA est une association bénévole à but non lucratif. Votre soutien est indispensable : ADHERER à ROMMA ou FAIRE un DON

Taninges - (74, Haute-Savoie)

Vallée du Giffre (635 m)   Longitude: 06° 35' 38" E   Latitude: 46° 06' 21" N Station romma n°98
 

Détail journalier du     <<     >>

Température Precipitation Humidité Pression Vent Dir Rafale Dir. rafale Ensol.
Heure (°C) (mm) (%) (hPa) (km/h) (km/h) (min)
01:00 5.407010163ONO11NNO0
02:00 4.907010163O8O0
03:00 2.708010152O16O0
04:00 2.907410144ENE16O0
05:00 4.506410135ONO19ESE0
06:00 4.406310137O23OSO0
07:00 3.706910144O16OSO0
08:00 6.006610142NNO15OSO45
09:00 6.806710148SO21SO60
10:00 8.805810149SO18SO60
11:00 10.8056101310OSO21O60
12:00 11.9058101311OSO24SO60
13:00 12.9056101313OSO26OSO60
14:00 14.1053101211OSO27SO60
15:00 14.804810129O24O60
16:00 14.9047101211O26ONO60
17:00 14.2049101214O31O60
18:00 14.0049101314O27O60
19:00 12.9052101313O24ONO55
20:00 12.105410148O19O55
21:00 9.806210143ONO10O0
22:00 8.206910147NE23NE0
23:00 6.807510142O6O0
minuit 5.208110142ENE6S0

Graphique du 15-05-2019

 

Serveur OMMA